Time;durP1;ratioP1;P1;durP2;ratioP2;P2;SDS_P1;SDS_P2;PMS_P1;PMS_P2;Temp;Humidity;BMP_temperature;BMP_pressure;BME280_temperature;BME280_humidity;BME280_pressure;Samples;Min_cycle;Max_cycle;Signal;HPM_P1;HPM_P2
2024/01/19 00:01:18;;;;;;;3.88;2.85;;;;;;;-1.83;100.00;101328.53;5086398;28;20050;-80
2024/01/19 00:03:45;;;;;;;5.00;2.33;;;;;;;-1.78;100.00;101330.09;5034409;28;20106;-80
2024/01/19 00:06:12;;;;;;;3.13;2.05;;;;;;;-1.72;100.00;101328.75;4991273;28;20051;-80
2024/01/19 00:08:38;;;;;;;4.30;2.60;;;;;;;-1.70;100.00;101332.53;5054448;28;20044;-80
2024/01/19 00:11:05;;;;;;;4.40;2.40;;;;;;;-1.63;100.00;101346.84;5030946;28;20081;-79
2024/01/19 00:13:32;;;;;;;4.25;2.22;;;;;;;-1.58;100.00;101347.31;5088531;27;20046;-79
2024/01/19 00:16:00;;;;;;;6.28;2.67;;;;;;;-1.52;100.00;101332.13;5044553;28;20497;-79
2024/01/19 00:18:27;;;;;;;7.32;2.78;;;;;;;-1.47;100.00;101344.91;5068014;28;20057;-79
2024/01/19 00:20:54;;;;;;;2.85;2.40;;;;;;;-1.44;100.00;101334.56;5063743;28;20495;-80
2024/01/19 00:23:21;;;;;;;5.90;2.47;;;;;;;-1.41;100.00;101330.50;5039749;28;20079;-80
2024/01/19 00:25:48;;;;;;;10.75;3.08;;;;;;;-1.41;100.00;101338.34;5044347;28;20054;-80
2024/01/19 00:28:15;;;;;;;4.93;2.63;;;;;;;-1.41;100.00;101346.94;5034684;28;20050;-80
2024/01/19 00:30:41;;;;;;;2.45;2.08;;;;;;;-1.43;100.00;101351.72;5063104;28;20044;-80
2024/01/19 00:33:08;;;;;;;3.78;2.90;;;;;;;-1.46;100.00;101344.56;5099994;28;20026;-80
2024/01/19 00:35:35;;;;;;;3.97;2.67;;;;;;;-1.46;100.00;101349.03;5062785;28;20046;-79
2024/01/19 00:38:06;;;;;;;2.63;2.42;;;;;;;-1.45;100.00;101350.56;5035185;28;20079;-79
2024/01/19 00:40:32;;;;;;;6.22;2.78;;;;;;;-1.48;100.00;101349.38;5046109;28;20480;-79
2024/01/19 00:42:59;;;;;;;3.70;2.22;;;;;;;-1.49;100.00;101357.56;5067232;28;20049;-79
2024/01/19 00:45:25;;;;;;;5.80;2.60;;;;;;;-1.49;100.00;101354.94;5036601;27;20251;-79
2024/01/19 00:47:52;;;;;;;5.32;2.47;;;;;;;-1.53;100.00;101352.25;5089961;27;20034;-79
2024/01/19 00:50:19;;;;;;;2.60;2.15;;;;;;;-1.52;100.00;101359.00;5044542;28;20042;-79
2024/01/19 00:52:48;;;;;;;2.78;2.20;;;;;;;-1.53;100.00;101357.50;5098166;27;20028;-80
2024/01/19 00:55:16;;;;;;;8.27;2.53;;;;;;;-1.53;100.00;101360.09;5036082;28;20049;-80
2024/01/19 00:57:45;;;;;;;6.25;2.03;;;;;;;-1.54;100.00;101363.06;5064728;28;20049;-80
2024/01/19 01:00:15;;;;;;;2.03;1.93;;;;;;;-1.54;100.00;101370.88;5038124;28;20040;-81
2024/01/19 01:02:41;;;;;;;2.10;1.95;;;;;;;-1.53;100.00;101375.75;5043816;28;20052;-80
2024/01/19 01:05:08;;;;;;;2.67;2.05;;;;;;;-1.52;100.00;101373.91;5062916;28;20097;-80
2024/01/19 01:07:35;;;;;;;2.45;2.25;;;;;;;-1.52;100.00;101377.28;5052322;28;20066;-80
2024/01/19 01:10:02;;;;;;;4.78;2.10;;;;;;;-1.51;100.00;101367.59;5081688;28;20040;-81
2024/01/19 01:12:29;;;;;;;3.47;1.48;;;;;;;-1.48;100.00;101382.59;5060791;28;20044;-79
2024/01/19 01:14:55;;;;;;;4.00;1.75;;;;;;;-1.46;100.00;101377.78;5032902;28;20137;-79
2024/01/19 01:17:22;;;;;;;4.18;1.65;;;;;;;-1.45;100.00;101387.13;5053029;28;20138;-79
2024/01/19 01:19:49;;;;;;;1.88;1.50;;;;;;;-1.43;100.00;101387.53;5050182;28;20038;-80
2024/01/19 01:22:17;;;;;;;1.30;1.23;;;;;;;-1.41;100.00;101391.31;5048142;28;20047;-79
2024/01/19 01:24:44;;;;;;;1.67;1.48;;;;;;;-1.39;100.00;101396.97;5081370;28;20507;-80
2024/01/19 01:27:10;;;;;;;1.50;1.40;;;;;;;-1.38;100.00;101398.47;5067074;28;20158;-80
2024/01/19 01:29:37;;;;;;;1.17;1.10;;;;;;;-1.34;100.00;101403.78;5119542;27;20048;-80
2024/01/19 01:32:03;;;;;;;3.47;1.00;;;;;;;-1.33;100.00;101404.53;5065363;28;20832;-78
2024/01/19 01:34:30;;;;;;;6.55;1.02;;;;;;;-1.33;100.00;101397.47;5071459;28;20046;-81
2024/01/19 01:36:57;;;;;;;3.47;1.10;;;;;;;-1.32;100.00;101393.75;5083585;28;20438;-80
2024/01/19 01:39:24;;;;;;;1.27;0.85;;;;;;;-1.31;100.00;101392.66;5054950;28;20863;-80
2024/01/19 01:41:50;;;;;;;1.05;0.85;;;;;;;-1.30;100.00;101394.16;5051052;28;20473;-79
2024/01/19 01:44:20;;;;;;;1.02;0.93;;;;;;;-1.30;100.00;101407.22;5069426;28;20077;-80
2024/01/19 01:46:47;;;;;;;1.67;1.20;;;;;;;-1.29;100.00;101395.69;5030871;28;20052;-80
2024/01/19 01:49:15;;;;;;;3.13;1.10;;;;;;;-1.29;100.00;101394.91;5046139;28;20051;-80
2024/01/19 01:51:43;;;;;;;5.22;0.93;;;;;;;-1.28;100.00;101402.41;5065734;28;20144;-80
2024/01/19 01:54:09;;;;;;;1.30;1.20;;;;;;;-1.29;100.00;101398.28;5046338;28;20105;-80
2024/01/19 01:56:36;;;;;;;1.17;1.00;;;;;;;-1.28;100.00;101404.28;5024137;28;20057;-80
2024/01/19 01:59:03;;;;;;;1.65;1.55;;;;;;;-1.30;100.00;101404.63;5047703;28;20077;-81
2024/01/19 02:01:30;;;;;;;1.98;1.30;;;;;;;-1.31;100.00;101410.94;5065704;28;20048;-81
2024/01/19 02:03:59;;;;;;;3.03;1.50;;;;;;;-1.30;100.00;101414.31;5035747;28;20450;-81
2024/01/19 02:06:27;;;;;;;2.00;1.15;;;;;;;-1.31;100.00;101408.31;5069871;28;20054;-81
2024/01/19 02:08:55;;;;;;;1.83;1.20;;;;;;;-1.30;100.00;101422.16;5032915;28;20046;-81
2024/01/19 02:11:22;;;;;;;1.42;1.20;;;;;;;-1.31;100.00;101428.47;5021048;28;20047;-80
2024/01/19 02:13:48;;;;;;;7.53;1.40;;;;;;;-1.30;100.00;101432.59;5067284;28;20119;-81
2024/01/19 02:16:15;;;;;;;2.33;1.40;;;;;;;-1.31;100.00;101424.00;5056274;28;20048;-81
2024/01/19 02:18:42;;;;;;;3.08;1.10;;;;;;;-1.29;100.00;101428.88;5061447;28;20053;-79
2024/01/19 02:21:08;;;;;;;1.67;1.40;;;;;;;-1.28;100.00;101431.16;5038503;28;20103;-80
2024/01/19 02:23:55;;;;;;;2.40;1.50;;;;;;;-1.29;100.00;101434.09;5058489;28;20070;-80
2024/01/19 02:26:22;;;;;;;2.72;1.23;;;;;;;-1.30;100.00;101440.44;5037401;28;20160;-80
2024/01/19 02:28:50;;;;;;;5.40;1.02;;;;;;;-1.33;100.00;101434.03;5051879;28;20558;-80
2024/01/19 02:31:17;;;;;;;1.23;1.20;;;;;;;-1.33;100.00;101438.50;5051917;28;20056;-81
2024/01/19 02:33:44;;;;;;;1.35;1.20;;;;;;;-1.35;100.00;101436.97;5048718;28;20495;-80
2024/01/19 02:36:10;;;;;;;3.60;1.88;;;;;;;-1.35;100.00;101449.28;5068225;28;20040;-79
2024/01/19 02:38:37;;;;;;;3.80;1.40;;;;;;;-1.38;100.00;101458.56;5043105;28;20043;-76
2024/01/19 02:41:03;;;;;;;4.55;1.00;;;;;;;-1.39;100.00;101449.22;5076333;27;20063;-76
2024/01/19 02:43:30;;;;;;;2.40;1.38;;;;;;;-1.41;100.00;101456.63;5038105;28;20046;-75
2024/01/19 02:45:56;;;;;;;1.67;1.25;;;;;;;-1.41;100.00;101459.22;5045204;28;20051;-75
2024/01/19 02:48:23;;;;;;;3.33;1.42;;;;;;;-1.42;100.00;101459.56;5061314;28;20055;-75
2024/01/19 02:50:50;;;;;;;2.00;1.00;;;;;;;-1.42;100.00;101462.94;5064626;28;20103;-75
2024/01/19 02:53:17;;;;;;;1.30;1.20;;;;;;;-1.41;100.00;101461.09;5068475;27;20131;-75
2024/01/19 02:55:44;;;;;;;3.25;1.67;;;;;;;-1.41;100.00;101461.84;5070832;28;20047;-75
2024/01/19 02:58:10;;;;;;;1.60;1.50;;;;;;;-1.41;100.00;101458.47;5051241;28;20069;-75
2024/01/19 03:00:39;;;;;;;1.13;1.02;;;;;;;-1.43;100.00;101461.44;5053928;28;20543;-75
2024/01/19 03:03:06;;;;;;;2.38;1.23;;;;;;;-1.43;100.00;101455.44;5057709;28;20045;-75
2024/01/19 03:05:33;;;;;;;9.43;1.60;;;;;;;-1.44;100.00;101462.53;5062453;28;20492;-75
2024/01/19 03:07:59;;;;;;;3.85;1.23;;;;;;;-1.43;100.00;101461.44;5049257;28;20061;-75
2024/01/19 03:10:26;;;;;;;2.65;1.48;;;;;;;-1.40;100.00;101468.59;5072929;28;20040;-75
2024/01/19 03:12:52;;;;;;;1.33;1.25;;;;;;;-1.40;100.00;101468.59;5048397;28;20053;-75
2024/01/19 03:15:19;;;;;;;3.75;1.52;;;;;;;-1.40;100.00;101476.41;5054245;28;20045;-75
2024/01/19 03:17:45;;;;;;;2.63;1.45;;;;;;;-1.40;100.00;101478.28;5054972;28;20912;-75
2024/01/19 03:20:13;;;;;;;4.90;2.05;;;;;;;-1.40;100.00;101478.28;5074121;28;20592;-74
2024/01/19 03:22:39;;;;;;;5.32;1.75;;;;;;;-1.41;100.00;101487.97;5030248;28;20049;-75
2024/01/19 03:25:06;;;;;;;3.42;2.67;;;;;;;-1.40;100.00;101489.47;5058861;28;20042;-76
2024/01/19 03:27:33;;;;;;;4.28;2.85;;;;;;;-1.40;100.00;101488.72;5068373;28;20070;-75
2024/01/19 03:29:59;;;;;;;6.50;3.63;;;;;;;-1.39;100.00;101491.00;5081106;28;20101;-75
2024/01/19 03:32:26;;;;;;;5.00;3.47;;;;;;;-1.38;100.00;101483.91;5050880;28;20048;-75
2024/01/19 03:34:53;;;;;;;9.05;3.10;;;;;;;-1.35;100.00;101483.25;5066674;28;20049;-75
2024/01/19 03:37:19;;;;;;;4.10;2.90;;;;;;;-1.40;100.00;101481.66;5022500;28;20496;-75
2024/01/19 03:39:46;;;;;;;4.80;2.58;;;;;;;-1.38;100.00;101486.53;5048956;28;20046;-76
2024/01/19 03:42:13;;;;;;;3.75;2.88;;;;;;;-1.38;100.00;101491.75;5068743;28;20050;-79
2024/01/19 03:44:40;;;;;;;12.30;2.63;;;;;;;-1.41;100.00;101493.19;5104355;28;20050;-79
2024/01/19 03:47:08;;;;;;;3.92;2.88;;;;;;;-1.39;100.00;101498.06;5087577;28;20036;-79
2024/01/19 03:49:35;;;;;;;2.85;2.15;;;;;;;-1.38;100.00;101496.97;5073735;28;20036;-79
2024/01/19 03:52:07;;;;;;;5.75;3.20;;;;;;;-1.35;100.00;101510.13;5071603;28;20054;-79
2024/01/19 03:54:34;;;;;;;3.83;2.67;;;;;;;-1.31;100.00;101520.66;5083729;28;20528;-79
2024/01/19 03:57:06;;;;;;;8.25;2.28;;;;;;;-1.27;100.00;101524.09;5038810;28;20042;-79
2024/01/19 03:59:34;;;;;;;;;;;;;;;-1.28;100.00;101521.84;5052477;28;20099;-79
2024/01/19 04:02:04;;;;;;;6.13;2.22;;;;;;;-1.30;100.00;101529.25;5071312;28;20026;-79
2024/01/19 04:04:31;;;;;;;4.15;1.63;;;;;;;-1.30;100.00;101537.09;5055785;27;20049;-80
2024/01/19 04:06:59;;;;;;;4.40;1.83;;;;;;;-1.30;100.00;101537.09;5009425;28;20044;-80
2024/01/19 04:09:27;;;;;;;4.45;2.28;;;;;;;-1.32;100.00;101528.81;5042658;28;20083;-80
2024/01/19 04:11:53;;;;;;;5.07;1.73;;;;;;;-1.32;100.00;101540.03;5092656;28;20042;-80
2024/01/19 04:14:20;;;;;;;13.02;2.35;;;;;;;-1.28;100.00;101551.31;5035371;28;20129;-80
2024/01/19 04:16:50;;;;;;;2.03;1.70;;;;;;;-1.24;100.00;101554.03;5091790;28;20079;-80
2024/01/19 04:19:17;;;;;;;2.47;2.00;;;;;;;-1.22;100.00;101551.84;5065304;28;20052;-81
2024/01/19 04:21:45;;;;;;;3.85;2.28;;;;;;;-1.21;100.00;101559.34;5053300;28;20935;-80
2024/01/19 04:24:12;;;;;;;3.58;2.00;;;;;;;-1.19;100.00;101554.50;5068420;28;20051;-80
2024/01/19 04:26:39;;;;;;;9.32;2.45;;;;;;;-1.17;100.00;101554.91;5054395;28;20042;-80
2024/01/19 04:29:09;;;;;;;3.80;1.80;;;;;;;-1.14;100.00;101554.25;5104801;27;20058;-80
2024/01/19 04:31:36;;;;;;;3.25;2.42;;;;;;;-1.13;100.00;101557.63;5065511;28;20050;-81
2024/01/19 04:34:04;;;;;;;2.13;1.80;;;;;;;-1.08;100.00;101575.66;5055082;28;20044;-80
2024/01/19 04:36:31;;;;;;;1.80;1.70;;;;;;;-1.09;100.00;101592.44;5035983;28;20943;-80
2024/01/19 04:38:58;;;;;;;3.03;2.00;;;;;;;-1.06;100.00;101597.75;5043971;28;20042;-80
2024/01/19 04:41:25;;;;;;;5.63;2.10;;;;;;;-1.03;100.00;101599.66;5094760;27;20277;-80
2024/01/19 04:43:53;;;;;;;3.25;1.75;;;;;;;-1.00;100.00;101603.47;5042176;28;20102;-80
2024/01/19 04:46:21;;;;;;;5.95;1.90;;;;;;;-0.98;100.00;101592.69;5073672;28;20080;-79
2024/01/19 04:48:49;;;;;;;6.70;1.80;;;;;;;-0.99;100.00;101593.78;5016490;28;20521;-79
2024/01/19 04:51:16;;;;;;;2.05;1.85;;;;;;;-0.99;100.00;101596.38;5081826;28;20541;-79
2024/01/19 04:53:43;;;;;;;5.85;2.10;;;;;;;-0.98;100.00;101595.28;5023223;28;20097;-79
2024/01/19 04:56:10;;;;;;;2.30;1.95;;;;;;;-0.98;100.00;101595.28;5060035;28;20053;-80
2024/01/19 04:58:37;;;;;;;7.32;2.50;;;;;;;-0.98;100.00;101600.50;5026481;28;20031;-79
2024/01/19 05:01:04;;;;;;;2.05;1.90;;;;;;;-0.98;100.00;101605.75;5061557;28;20044;-79
2024/01/19 05:03:31;;;;;;;2.75;1.90;;;;;;;-1.01;100.00;101610.56;5031602;28;20526;-80
2024/01/19 05:05:58;;;;;;;3.92;1.95;;;;;;;-1.02;100.00;101603.81;5071202;28;20052;-80
2024/01/19 05:08:25;;;;;;;3.13;2.22;;;;;;;-1.04;100.00;101608.59;5063749;28;20088;-79
2024/01/19 05:10:52;;;;;;;2.75;1.77;;;;;;;-1.05;100.00;101604.47;5054070;28;20043;-80
2024/01/19 05:13:18;;;;;;;1.98;1.83;;;;;;;-1.05;100.00;101608.94;5009625;28;20512;-79
2024/01/19 05:15:45;;;;;;;3.70;2.00;;;;;;;-1.06;100.00;101604.81;5059747;28;20045;-80
2024/01/19 05:18:12;;;;;;;3.55;2.03;;;;;;;-1.05;100.00;101612.31;5049207;28;20050;-79
2024/01/19 05:20:38;;;;;;;4.00;2.03;;;;;;;-1.08;100.00;101625.31;5071563;28;20046;-79
2024/01/19 05:23:06;;;;;;;2.28;1.67;;;;;;;-1.07;100.00;101616.38;5051893;28;20405;-79
2024/01/19 05:25:33;;;;;;;2.30;1.50;;;;;;;-1.08;100.00;101630.53;5036360;28;20046;-80
2024/01/19 05:28:00;;;;;;;3.33;2.22;;;;;;;-1.09;100.00;101624.53;5055615;28;20109;-79
2024/01/19 05:30:26;;;;;;;2.42;1.75;;;;;;;-1.10;100.00;101637.94;5059648;28;20054;-79
2024/01/19 05:32:53;;;;;;;2.80;1.40;;;;;;;-1.13;100.00;101643.84;5058142;28;20046;-79
2024/01/19 05:35:20;;;;;;;1.88;1.50;;;;;;;-1.14;100.00;101648.31;5072853;28;20145;-79
2024/01/19 05:37:46;;;;;;;1.83;1.35;;;;;;;-1.12;100.00;101650.59;5066197;28;20099;-79
2024/01/19 05:40:13;;;;;;;2.25;1.30;;;;;;;-1.14;100.00;101653.53;5077658;27;20049;-79
2024/01/19 05:42:42;;;;;;;3.80;1.67;;;;;;;-1.17;100.00;101659.44;5083123;28;20044;-79
2024/01/19 05:45:09;;;;;;;3.55;1.45;;;;;;;-1.20;100.00;101662.72;5059383;28;20063;-79
2024/01/19 05:47:36;;;;;;;3.10;1.35;;;;;;;-1.21;100.00;101661.22;5041639;28;20054;-80
2024/01/19 05:50:02;;;;;;;2.92;1.38;;;;;;;-1.22;100.00;101666.78;5039157;28;20127;-80
2024/01/19 05:52:31;;;;;;;1.88;1.10;;;;;;;-1.24;100.00;101679.44;5069208;28;20046;-80
2024/01/19 05:54:58;;;;;;;2.30;0.90;;;;;;;-1.27;100.00;101673.03;5085751;27;20040;-80
2024/01/19 05:57:25;;;;;;;1.42;1.10;;;;;;;-1.28;100.00;101681.19;5051910;28;20057;-79
2024/01/19 05:59:52;;;;;;;1.83;0.80;;;;;;;-1.31;100.00;101690.47;5068433;28;20137;-79
2024/01/19 06:02:20;;;;;;;2.10;0.82;;;;;;;-1.33;100.00;101684.81;5072434;28;20048;-79
2024/01/19 06:04:47;;;;;;;0.93;0.80;;;;;;;-1.35;100.00;101687.75;5047056;28;20044;-79
2024/01/19 06:07:14;;;;;;;3.05;0.90;;;;;;;-1.35;100.00;101697.44;5050409;28;20136;-80
2024/01/19 06:09:41;;;;;;;2.03;0.98;;;;;;;-1.36;100.00;101695.94;5046646;28;20421;-80
2024/01/19 06:12:11;;;;;;;2.15;1.10;;;;;;;-1.36;100.00;101699.28;5018182;28;20062;-79
2024/01/19 06:14:38;;;;;;;1.70;1.10;;;;;;;-1.39;100.00;101705.19;5028658;28;20032;-81
2024/01/19 06:17:05;;;;;;;6.03;1.10;;;;;;;-1.40;100.00;101713.34;5038160;28;20034;-81
2024/01/19 06:19:32;;;;;;;4.50;1.08;;;;;;;-1.41;100.00;101707.38;5070767;28;20229;-80
2024/01/19 06:21:58;;;;;;;0.73;0.73;;;;;;;-1.40;100.00;101713.34;5057420;28;20046;-80
2024/01/19 06:24:25;;;;;;;1.25;0.98;;;;;;;-1.40;100.00;101723.81;5080432;28;20125;-79
2024/01/19 06:26:52;;;;;;;1.88;0.77;;;;;;;-1.42;100.00;101721.53;5042561;28;20043;-80
2024/01/19 06:29:18;;;;;;;1.95;0.80;;;;;;;-1.44;100.00;101728.16;5055255;28;20093;-79
2024/01/19 06:31:46;;;;;;;5.43;1.00;;;;;;;-1.47;100.00;101723.63;5070347;28;20053;-79
2024/01/19 06:34:13;;;;;;;1.25;0.75;;;;;;;-1.47;100.00;101739.28;5054332;28;20046;-79
2024/01/19 06:36:44;;;;;;;2.55;0.70;;;;;;;-1.49;100.00;101738.84;5036574;28;20505;-79
2024/01/19 06:39:13;;;;;;;3.80;1.30;;;;;;;-1.50;100.00;101751.16;5084643;28;20048;-79
2024/01/19 06:41:48;;;;;;;8.38;0.93;;;;;;;-1.53;100.00;101751.06;5090649;28;20464;-81
2024/01/19 06:44:15;;;;;;;1.80;1.20;;;;;;;-1.53;100.00;101748.44;5072680;27;20045;-79
2024/01/19 06:46:45;;;;;;;1.52;1.40;;;;;;;-1.54;100.00;101759.97;5046145;28;20034;-79
2024/01/19 06:49:17;;;;;;;3.50;1.92;;;;;;;-1.55;100.00;101761.06;5053997;28;20059;-82
2024/01/19 06:51:44;;;;;;;2.33;2.13;;;;;;;-1.56;100.00;101762.91;5061908;28;20064;-80
2024/01/19 06:54:12;;;;;;;2.47;2.28;;;;;;;-1.57;100.00;101769.22;5075077;28;20055;-79
2024/01/19 06:56:38;;;;;;;3.60;2.58;;;;;;;-1.59;100.00;101776.63;5063146;28;20080;-79
2024/01/19 06:59:05;;;;;;;3.47;2.25;;;;;;;-1.58;100.00;101780.00;5061605;28;20036;-79
2024/01/19 07:01:33;;;;;;;5.55;2.60;;;;;;;-1.61;100.00;101781.47;5061439;28;20544;-80
2024/01/19 07:04:02;;;;;;;4.60;2.80;;;;;;;-1.63;100.00;101786.25;5071041;28;20129;-80
2024/01/19 07:06:28;;;;;;;3.65;2.83;;;;;;;-1.64;100.00;101784.72;5059420;28;20055;-82
2024/01/19 07:08:57;;;;;;;3.00;2.70;;;;;;;-1.66;100.00;101786.16;5079412;28;20090;-82
2024/01/19 07:11:27;;;;;;;7.50;2.78;;;;;;;-1.66;100.00;101792.13;5061656;28;20068;-82
2024/01/19 07:13:55;;;;;;;3.17;2.40;;;;;;;-1.69;100.00;101798.78;5067448;28;20034;-81
2024/01/19 07:16:22;;;;;;;9.18;3.55;;;;;;;-1.69;100.00;101795.41;5062776;28;20054;-82
2024/01/19 07:18:50;;;;;;;4.18;3.25;;;;;;;-1.67;100.00;101795.81;5038642;28;20136;-79
2024/01/19 07:21:17;;;;;;;5.07;3.70;;;;;;;-1.68;100.00;101799.53;5058493;28;20085;-81
2024/01/19 07:23:44;;;;;;;5.65;3.20;;;;;;;-1.70;100.00;101799.84;5056420;28;20067;-80
2024/01/19 07:26:11;;;;;;;4.53;3.28;;;;;;;-1.71;100.00;101803.56;5057156;28;20046;-84
2024/01/19 07:28:38;;;;;;;6.20;3.45;;;;;;;-1.72;100.00;101809.88;5055599;28;20046;-79
2024/01/19 07:31:05;;;;;;;5.00;3.58;;;;;;;-1.71;100.00;101815.84;5088964;28;20089;-78
2024/01/19 07:33:33;;;;;;;8.00;3.20;;;;;;;-1.73;100.00;101816.19;5085411;28;20098;-78
2024/01/19 07:36:03;;;;;;;4.10;3.77;;;;;;;-1.74;100.00;101825.09;5062863;27;20780;-78
2024/01/19 07:38:31;;;;;;;4.10;3.00;;;;;;;-1.75;100.00;101830.66;5061583;28;20076;-79
2024/01/19 07:40:59;;;;;;;5.38;3.80;;;;;;;-1.75;100.00;101835.88;5021155;28;20110;-78
2024/01/19 07:43:28;;;;;;;4.70;3.50;;;;;;;-1.75;100.00;101841.09;5012156;28;20105;-79
2024/01/19 07:45:55;;;;;;;5.32;4.00;;;;;;;-1.77;100.00;101844.03;5038421;28;20117;-79
2024/01/19 07:48:24;;;;;;;7.93;3.78;;;;;;;-1.75;100.00;101844.47;5071213;28;20073;-78
2024/01/19 07:50:53;;;;;;;4.45;3.67;;;;;;;-1.71;100.00;101853.16;5069921;28;20044;-78
2024/01/19 07:53:19;;;;;;;3.58;3.00;;;;;;;-1.68;100.00;101851.75;5070078;28;20049;-81
2024/01/19 07:55:46;;;;;;;8.15;3.90;;;;;;;-1.62;100.00;101854.91;5055921;28;20527;-84
2024/01/19 07:58:13;;;;;;;5.57;3.88;;;;;;;-1.56;100.00;101856.94;5058653;28;20045;-82
2024/01/19 08:00:40;;;;;;;4.07;2.85;;;;;;;-1.50;100.00;101860.09;5054881;28;20038;-79
2024/01/19 08:03:08;;;;;;;5.30;3.60;;;;;;;-1.45;100.00;101868.47;5032136;28;20054;-80
2024/01/19 08:05:35;;;;;;;5.30;3.42;;;;;;;-1.39;100.00;101863.78;5099612;27;20033;-79
2024/01/19 08:08:02;;;;;;;2.92;2.72;;;;;;;-1.34;100.00;101874.00;5106737;27;20063;-80
2024/01/19 08:10:31;;;;;;;6.72;3.90;;;;;;;-1.30;100.00;101867.03;5072757;28;20102;-79
2024/01/19 08:12:59;;;;;;;5.18;3.75;;;;;;;-1.26;100.00;101873.09;5080811;28;20044;-77
2024/01/19 08:15:26;;;;;;;4.35;3.80;;;;;;;-1.24;100.00;101873.53;5091509;28;20043;-79
2024/01/19 08:17:52;;;;;;;4.70;3.35;;;;;;;-1.22;100.00;101887.03;5075316;27;20099;-80
2024/01/19 08:20:19;;;;;;;4.85;3.55;;;;;;;-1.23;100.00;101874.31;5081574;28;20068;-81
2024/01/19 08:22:50;;;;;;;8.23;4.18;;;;;;;-1.24;100.00;101881.38;5020923;28;20501;-79
2024/01/19 08:25:17;;;;;;;6.57;3.67;;;;;;;-1.23;100.00;101887.38;5072738;28;20532;-80
2024/01/19 08:27:44;;;;;;;6.32;3.42;;;;;;;-1.27;100.00;101887.25;5066982;28;20040;-81
2024/01/19 08:30:11;;;;;;;3.80;3.38;;;;;;;-1.27;100.00;101891.72;5070866;28;20106;-79
2024/01/19 08:32:38;;;;;;;5.57;3.50;;;;;;;-1.27;100.00;101896.94;5036843;28;20049;-80
2024/01/19 08:35:09;;;;;;;5.47;3.15;;;;;;;-1.25;100.00;101897.38;5042108;28;20061;-79
2024/01/19 08:37:37;;;;;;;10.57;3.60;;;;;;;-1.25;100.00;101898.16;5063769;28;20050;-80
2024/01/19 08:40:22;;;;;;;7.35;3.85;;;;;;;-1.21;100.00;101895.63;5069827;28;20069;-80
2024/01/19 08:42:48;;;;;;;7.18;4.25;;;;;;;-1.17;100.00;101893.84;5061612;28;20052;-80
2024/01/19 08:45:15;;;;;;;7.90;4.50;;;;;;;-1.12;100.00;101904.06;5030905;28;20776;-80
2024/01/19 08:47:41;;;;;;;6.70;4.43;;;;;;;-1.06;100.00;101905.38;5071135;28;20070;-79
2024/01/19 08:50:09;;;;;;;7.88;3.35;;;;;;;-1.01;100.00;101911.13;5055297;28;20054;-80
2024/01/19 08:52:36;;;;;;;8.20;3.97;;;;;;;-0.96;100.00;101904.16;5042608;28;20055;-79
2024/01/19 08:55:03;;;;;;;6.72;4.00;;;;;;;-0.93;100.00;101901.63;5052133;28;20062;-80
2024/01/19 08:57:31;;;;;;;8.90;4.28;;;;;;;-0.90;100.00;101908.81;5071578;28;20056;-79
2024/01/19 08:59:57;;;;;;;4.57;4.18;;;;;;;-0.87;100.00;101904.78;5026961;28;20116;-80
2024/01/19 09:02:27;;;;;;;9.40;4.15;;;;;;;-0.84;100.00;101911.97;5066966;28;20098;-82
2024/01/19 09:04:54;;;;;;;7.00;4.43;;;;;;;-0.82;100.00;101909.78;5042007;28;20046;-81
2024/01/19 09:07:21;;;;;;;7.70;4.05;;;;;;;-0.78;100.00;101915.84;5078765;28;20063;-80
2024/01/19 09:09:48;;;;;;;4.97;3.38;;;;;;;-0.74;100.00;101916.69;5067648;27;21937;-79
2024/01/19 09:12:14;;;;;;;4.75;3.97;;;;;;;-0.71;100.00;101923.88;5071610;28;20408;-80
2024/01/19 09:14:41;;;;;;;6.65;3.88;;;;;;;-0.68;100.00;101931.06;5041387;28;20104;-79
2024/01/19 09:17:08;;;;;;;5.45;4.05;;;;;;;-0.63;100.00;101937.91;5052276;28;20852;-79
2024/01/19 09:19:35;;;;;;;4.63;3.67;;;;;;;-0.59;100.00;101939.53;5064214;28;20044;-79
2024/01/19 09:22:05;;;;;;;6.85;4.30;;;;;;;-0.55;100.00;101942.22;5056702;28;20179;-79
2024/01/19 09:24:32;;;;;;;4.63;3.70;;;;;;;-0.51;100.00;101946.47;5073217;28;20032;-79
2024/01/19 09:26:59;;;;;;;4.95;3.80;;;;;;;-0.47;100.00;101955.16;5069535;28;20040;-79
2024/01/19 09:29:26;;;;;;;4.20;3.78;;;;;;;-0.45;100.00;101958.22;5072485;28;20066;-79
2024/01/19 09:31:52;;;;;;;5.80;3.58;;;;;;;-0.41;100.00;101950.47;5066799;28;20050;-80
2024/01/19 09:34:20;;;;;;;7.80;4.07;;;;;;;-0.37;100.00;101956.53;5088338;28;20042;-81
2024/01/19 09:36:47;;;;;;;8.23;3.50;;;;;;;-0.34;100.00;101956.63;5004933;28;20056;-81
2024/01/19 09:39:14;;;;;;;7.50;4.20;;;;;;;-0.31;100.00;101965.66;5030046;28;20165;-78
2024/01/19 09:41:49;;;;;;;5.90;4.13;;;;;;;-0.26;100.00;101965.41;5084957;28;20044;-77
2024/01/19 09:44:20;;;;;;;6.88;4.00;;;;;;;-0.23;100.00;101977.84;5055502;28;20032;-83
2024/01/19 09:47:08;;;;;;;6.20;4.37;;;;;;;-0.20;100.00;101981.63;5013098;28;20050;-82
2024/01/19 09:49:47;;;;;;;7.30;4.28;;;;;;;-0.16;100.00;101979.88;5102109;27;20050;-81
2024/01/19 09:52:17;;;;;;;7.38;4.10;;;;;;;-0.14;100.00;101988.16;5063989;28;20871;-81
2024/01/19 09:54:43;;;;;;;6.70;4.47;;;;;;;-0.09;100.00;101988.66;5034554;28;20062;-74
2024/01/19 09:57:10;;;;;;;9.13;4.70;;;;;;;-0.06;100.00;101992.47;5038978;28;20069;-81
2024/01/19 09:59:37;;;;;;;4.82;3.92;;;;;;;-0.01;100.00;101994.84;5054387;28;20046;-81
2024/01/19 10:02:06;;;;;;;8.20;4.38;;;;;;;0.04;100.00;101994.56;5032013;28;20059;-78
2024/01/19 10:04:32;;;;;;;8.85;5.53;;;;;;;0.08;100.00;102002.53;5019072;28;20102;-79
2024/01/19 10:07:01;;;;;;;6.80;4.47;;;;;;;0.14;100.00;101993.31;5064989;28;20491;-78
2024/01/19 10:09:29;;;;;;;8.27;4.53;;;;;;;0.21;100.00;101990.88;5094052;28;20053;-79
2024/01/19 10:11:55;;;;;;;5.20;4.22;;;;;;;0.27;100.00;101998.16;5046939;28;20075;-79
2024/01/19 10:14:23;;;;;;;4.68;3.63;;;;;;;0.34;100.00;102005.41;5037330;28;20028;-78
2024/01/19 10:16:52;;;;;;;6.90;4.40;;;;;;;0.42;100.00;102008.94;5064414;28;20042;-78
2024/01/19 10:19:22;;;;;;;8.60;4.60;;;;;;;0.52;100.00;102016.31;5079387;28;20048;-79
2024/01/19 10:21:51;;;;;;;11.52;5.00;;;;;;;0.57;100.00;102018.66;5043926;28;20045;-79
2024/01/19 10:24:19;;;;;;;5.20;3.72;;;;;;;0.59;100.00;102022.47;5054351;28;20043;-79
2024/01/19 10:26:53;;;;;;;6.00;4.22;;;;;;;0.58;100.00;102023.56;5101560;27;20062;-79
2024/01/19 10:29:21;;;;;;;7.72;3.92;;;;;;;0.56;100.00;102025.00;5061632;28;20057;-79
2024/01/19 10:31:50;;;;;;;8.18;4.43;;;;;;;0.54;100.00;102027.97;5095766;28;20835;-80
2024/01/19 10:34:26;;;;;;;6.88;4.45;;;;;;;0.60;100.00;102025.84;5104275;28;20036;-79
2024/01/19 10:36:53;;;;;;;8.40;3.95;;;;;;;0.71;100.00;102033.97;5066880;28;20117;-80
2024/01/19 10:39:22;;;;;;;10.55;4.75;;;;;;;0.82;100.00;102037.56;5073945;28;20040;-80
2024/01/19 10:41:50;;;;;;;9.77;4.18;;;;;;;0.88;100.00;102038.84;5086544;28;20040;-80
2024/01/19 10:44:20;;;;;;;12.65;4.55;;;;;;;0.93;100.00;102036.72;5060658;28;20044;-80
2024/01/19 10:46:49;;;;;;;5.93;3.92;;;;;;;0.99;100.00;102034.59;5081930;28;20131;-79
2024/01/19 10:49:16;;;;;;;6.00;4.38;;;;;;;1.05;100.00;102042.94;5039502;28;20125;-79
2024/01/19 10:51:44;;;;;;;5.05;3.90;;;;;;;1.07;100.00;102041.50;5057138;28;20050;-77
2024/01/19 10:54:17;;;;;;;6.78;4.53;;;;;;;1.17;100.00;102034.97;5061774;28;20032;-79
2024/01/19 10:56:45;;;;;;;8.55;4.32;;;;;;;1.22;100.00;102043.31;5056492;28;20119;-81
2024/01/19 10:59:14;;;;;;;11.38;3.70;;;;;;;1.29;100.00;102046.09;5060413;28;20040;-80
2024/01/19 11:01:42;;;;;;;10.00;4.35;;;;;;;1.33;100.00;102044.28;5043615;28;20046;-80
2024/01/19 11:04:12;;;;;;;5.85;3.88;;;;;;;1.33;100.00;102046.91;5074369;28;20526;-77
2024/01/19 11:06:38;;;;;;;12.38;4.60;;;;;;;1.32;100.00;102037.53;5080221;28;20098;-77
2024/01/19 11:09:06;;;;;;;9.52;4.53;;;;;;;1.36;100.00;102045.47;5064142;28;20068;-80
2024/01/19 11:11:39;;;;;;;6.47;4.50;;;;;;;1.42;100.00;102049.34;5079118;28;20046;-78
2024/01/19 11:14:09;;;;;;;6.68;3.72;;;;;;;1.46;100.00;102042.31;5084810;27;20056;-78
2024/01/19 11:16:42;;;;;;;10.35;4.43;;;;;;;1.51;100.00;102036.03;5067459;28;20889;-78
2024/01/19 11:19:09;;;;;;;13.85;5.38;;;;;;;1.54;100.00;102038.72;5046065;28;20075;-80